createdAt,value
2018-12-26T00:00:51.592Z,16.40
2018-12-26T00:03:17.768Z,15.05
2018-12-26T00:05:44.039Z,16.10
2018-12-26T00:08:10.169Z,14.32
2018-12-26T00:10:36.322Z,15.25
2018-12-26T00:13:02.492Z,15.85
2018-12-26T00:15:28.721Z,14.98
2018-12-26T00:17:54.864Z,15.13
2018-12-26T00:20:21.010Z,15.25
2018-12-26T00:22:47.924Z,15.93
2018-12-26T00:25:14.200Z,15.20
2018-12-26T00:27:40.249Z,17.37
2018-12-26T00:30:06.422Z,16.73
2018-12-26T00:32:33.300Z,16.92
2018-12-26T00:34:59.492Z,15.00
2018-12-26T00:37:25.671Z,15.68
2018-12-26T00:39:51.817Z,17.02
2018-12-26T00:42:17.956Z,16.87
2018-12-26T00:44:44.102Z,17.12
2018-12-26T00:47:11.010Z,16.25
2018-12-26T00:49:37.164Z,16.50
2018-12-26T00:52:03.347Z,16.15
2018-12-26T00:54:29.519Z,15.07
2018-12-26T00:56:55.681Z,15.43
2018-12-26T00:59:21.874Z,14.95
2018-12-26T01:01:48.064Z,13.93
2018-12-26T01:04:14.239Z,15.10
2018-12-26T01:06:41.113Z,14.25
2018-12-26T01:09:07.296Z,14.48
2018-12-26T01:11:33.461Z,16.65
2018-12-26T01:13:59.610Z,15.82
2018-12-26T01:16:25.733Z,15.60
2018-12-26T01:18:51.900Z,15.13
2018-12-26T01:21:18.046Z,13.65
2018-12-26T01:23:44.931Z,14.80
2018-12-26T01:26:18.990Z,14.90
2018-12-26T01:28:37.999Z,16.85
2018-12-26T01:31:04.107Z,14.77
2018-12-26T01:33:30.243Z,16.55
2018-12-26T01:35:56.417Z,16.35
2018-12-26T01:38:22.560Z,16.27
2018-12-26T01:40:48.736Z,15.68
2018-12-26T01:43:14.883Z,16.00
2018-12-26T01:45:41.013Z,16.02
2018-12-26T01:48:07.181Z,16.90
2018-12-26T01:50:34.055Z,15.98
2018-12-26T01:53:00.208Z,15.43
2018-12-26T01:55:26.355Z,14.63
2018-12-26T01:57:53.298Z,16.17
2018-12-26T02:00:19.501Z,14.80
2018-12-26T02:02:45.618Z,15.18
2018-12-26T02:05:11.798Z,17.05
2018-12-26T02:07:38.677Z,17.55
2018-12-26T02:10:04.848Z,16.25
2018-12-26T02:12:30.981Z,14.70
2018-12-26T02:14:57.129Z,16.80
2018-12-26T02:17:24.006Z,17.10
2018-12-26T02:19:50.170Z,17.02
2018-12-26T02:22:16.422Z,16.48
2018-12-26T02:24:43.459Z,17.30
2018-12-26T02:27:09.761Z,16.40
2018-12-26T02:29:35.979Z,16.42
2018-12-26T02:32:02.138Z,16.42
2018-12-26T02:34:28.338Z,17.15
2018-12-26T02:36:54.567Z,16.05
2018-12-26T02:39:20.936Z,16.70
2018-12-26T02:41:47.102Z,16.58
2018-12-26T02:44:13.277Z,15.73
2018-12-26T02:46:39.587Z,15.63
2018-12-26T02:49:05.786Z,17.62
2018-12-26T02:51:31.985Z,17.48
2018-12-26T02:53:58.194Z,15.70
2018-12-26T02:56:24.392Z,19.10
2018-12-26T02:58:50.535Z,16.10
2018-12-26T03:01:16.741Z,16.15
2018-12-26T03:03:52.115Z,16.00
2018-12-26T03:06:19.139Z,18.33
2018-12-26T03:08:45.351Z,18.30
2018-12-26T03:11:11.499Z,18.98
2018-12-26T03:13:37.676Z,18.70
2018-12-26T03:16:04.643Z,16.95
2018-12-26T03:18:30.761Z,17.92
2018-12-26T03:20:57.686Z,19.33
2018-12-26T03:23:24.592Z,17.02
2018-12-26T03:25:50.764Z,19.62
2018-12-26T03:28:16.922Z,18.30
2018-12-26T03:30:43.093Z,20.12
2018-12-26T03:33:09.212Z,19.58
2018-12-26T03:35:35.447Z,18.62
2018-12-26T03:38:01.645Z,21.48
2018-12-26T03:40:27.792Z,19.42
2018-12-26T03:42:53.954Z,20.55
2018-12-26T03:45:20.127Z,21.95
2018-12-26T03:47:46.424Z,21.60
2018-12-26T03:50:12.543Z,20.98
2018-12-26T03:52:39.478Z,21.10
2018-12-26T03:55:06.404Z,22.65
2018-12-26T03:57:32.551Z,21.60
2018-12-26T03:59:59.660Z,21.00
2018-12-26T04:02:25.828Z,21.20
2018-12-26T04:04:52.047Z,21.65
2018-12-26T04:07:18.238Z,19.83
2018-12-26T04:09:44.407Z,20.73
2018-12-26T04:12:11.356Z,19.65
2018-12-26T04:14:38.270Z,18.85
2018-12-26T04:17:04.451Z,20.92
2018-12-26T04:19:30.603Z,20.80
2018-12-26T04:21:56.777Z,19.17
2018-12-26T04:24:22.952Z,17.92
2018-12-26T04:26:49.151Z,19.55
2018-12-26T04:29:16.041Z,21.20
2018-12-26T04:31:42.269Z,20.15
2018-12-26T04:34:08.469Z,21.02
2018-12-26T04:36:34.579Z,20.83
2018-12-26T04:39:00.777Z,19.10
2018-12-26T04:41:26.984Z,22.15
2018-12-26T04:43:53.191Z,19.67
2018-12-26T04:46:19.361Z,19.98
2018-12-26T04:48:45.679Z,18.05
2018-12-26T04:51:11.761Z,20.80
2018-12-26T04:53:37.927Z,20.55
2018-12-26T04:56:04.099Z,21.48
2018-12-26T04:58:30.322Z,20.15
2018-12-26T05:00:57.253Z,20.10
2018-12-26T05:03:23.375Z,20.20
2018-12-26T05:05:49.523Z,20.23
2018-12-26T05:08:16.426Z,24.58
2018-12-26T05:10:42.574Z,22.42
2018-12-26T05:13:08.762Z,20.70
2018-12-26T05:15:34.890Z,23.15
2018-12-26T05:18:01.095Z,21.02
2018-12-26T05:20:27.296Z,21.30
2018-12-26T05:22:54.223Z,21.77
2018-12-26T05:25:20.415Z,22.77
2018-12-26T05:27:46.567Z,21.23
2018-12-26T05:30:12.724Z,21.12
2018-12-26T05:32:39.036Z,24.95
2018-12-26T05:35:05.205Z,19.05
2018-12-26T05:37:31.593Z,20.45
2018-12-26T05:39:57.781Z,21.67
2018-12-26T05:42:23.950Z,20.40
2018-12-26T05:44:50.130Z,20.08
2018-12-26T05:47:16.270Z,18.45
2018-12-26T05:49:42.434Z,17.10
2018-12-26T05:52:08.577Z,18.98
2018-12-26T05:54:35.516Z,18.37
2018-12-26T05:57:01.655Z,19.02
2018-12-26T05:59:28.580Z,20.10
2018-12-26T06:01:54.771Z,17.05
2018-12-26T06:04:20.963Z,21.75
2018-12-26T06:06:47.875Z,22.27
2018-12-26T06:09:14.026Z,17.08
2018-12-26T06:11:40.958Z,17.55
2018-12-26T06:14:07.118Z,17.27
2018-12-26T06:16:33.302Z,18.65
2018-12-26T06:18:59.435Z,19.65
2018-12-26T06:21:26.354Z,18.87
2018-12-26T06:23:52.501Z,20.33
2018-12-26T06:26:18.657Z,17.87
2018-12-26T06:28:45.545Z,16.45
2018-12-26T06:31:11.781Z,20.55
2018-12-26T06:33:37.981Z,19.33
2018-12-26T06:36:04.156Z,17.80
2018-12-26T06:38:30.338Z,20.08
2018-12-26T06:40:56.512Z,20.98
2018-12-26T06:43:22.710Z,18.23
2018-12-26T06:45:48.832Z,20.20
2018-12-26T06:48:14.996Z,18.67
2018-12-26T06:50:41.223Z,16.60
2018-12-26T06:53:07.392Z,15.48
2018-12-26T06:55:33.566Z,22.83
2018-12-26T06:58:00.157Z,17.15
2018-12-26T07:00:25.949Z,19.33
2018-12-26T07:02:52.848Z,18.45
2018-12-26T07:05:19.006Z,18.85
2018-12-26T07:07:45.201Z,20.60
2018-12-26T07:10:11.390Z,23.67
2018-12-26T07:12:38.287Z,21.12
2018-12-26T07:15:04.435Z,21.87
2018-12-26T07:17:30.598Z,21.20
2018-12-26T07:19:56.751Z,24.20
2018-12-26T07:22:22.911Z,30.80
2018-12-26T07:24:49.058Z,20.83
2018-12-26T07:27:16.023Z,19.05
2018-12-26T07:29:42.911Z,20.73
2018-12-26T07:32:09.097Z,23.75
2018-12-26T07:34:42.148Z,22.42
2018-12-26T07:37:01.442Z,28.40
2018-12-26T07:39:27.613Z,26.65
2018-12-26T07:41:53.759Z,22.98
2018-12-26T07:44:19.877Z,25.20
2018-12-26T07:46:46.066Z,22.98
2018-12-26T07:49:12.243Z,25.50
2018-12-26T07:51:38.422Z,21.17
2018-12-26T07:54:04.568Z,24.15
2018-12-26T07:56:30.709Z,21.70
2018-12-26T07:58:56.872Z,23.62
2018-12-26T08:01:23.783Z,23.67
2018-12-26T08:03:49.971Z,25.90
2018-12-26T08:06:16.121Z,22.42
2018-12-26T08:08:42.279Z,20.37
2018-12-26T08:11:08.403Z,20.48
2018-12-26T08:13:34.573Z,19.87
2018-12-26T08:16:00.819Z,27.02
2018-12-26T08:18:28.027Z,23.85
2018-12-26T08:20:54.983Z,23.55
2018-12-26T08:23:22.053Z,22.83
2018-12-26T08:25:48.364Z,22.35
2018-12-26T08:28:14.650Z,19.35
2018-12-26T08:30:41.451Z,26.62
2018-12-26T08:33:07.645Z,23.45
2018-12-26T08:35:34.551Z,22.77
2018-12-26T08:38:00.736Z,20.48
2018-12-26T08:40:28.720Z,19.95
2018-12-26T08:42:54.786Z,21.98
2018-12-26T08:45:20.952Z,20.92
2018-12-26T08:47:47.158Z,19.80
2018-12-26T08:50:14.136Z,20.45
2018-12-26T08:52:41.115Z,19.30
2018-12-26T08:55:07.265Z,19.60
2018-12-26T08:57:33.428Z,19.75
2018-12-26T09:00:00.344Z,19.95
2018-12-26T09:02:26.540Z,20.58
2018-12-26T09:04:52.719Z,19.92
2018-12-26T09:07:18.891Z,19.90
2018-12-26T09:09:45.051Z,19.55
2018-12-26T09:12:11.195Z,20.25
2018-12-26T09:14:37.408Z,18.85
2018-12-26T09:17:03.979Z,17.67
2018-12-26T09:19:30.951Z,18.60
2018-12-26T09:21:57.138Z,18.27
2018-12-26T09:24:23.295Z,18.00
2018-12-26T09:26:49.476Z,17.95
2018-12-26T09:29:15.648Z,18.27
2018-12-26T09:31:41.839Z,16.48
2018-12-26T09:34:07.994Z,18.17
2018-12-26T09:36:34.236Z,19.05
2018-12-26T09:39:00.458Z,17.75
2018-12-26T09:41:26.594Z,18.35
2018-12-26T09:43:52.738Z,20.55
2018-12-26T09:46:18.898Z,18.10
2018-12-26T09:48:45.049Z,19.48
2018-12-26T09:51:11.956Z,20.67
2018-12-26T09:53:38.147Z,18.48
2018-12-26T09:56:04.309Z,18.60
2018-12-26T09:58:30.490Z,18.10
2018-12-26T10:00:56.655Z,21.50
2018-12-26T10:03:22.835Z,21.70
2018-12-26T10:05:49.751Z,21.90
2018-12-26T10:08:15.923Z,20.73
2018-12-26T10:10:42.082Z,21.62
2018-12-26T10:13:08.272Z,21.55
2018-12-26T10:15:34.435Z,19.15
2018-12-26T10:18:00.620Z,23.02
2018-12-26T10:20:27.536Z,25.73
2018-12-26T10:22:53.684Z,23.87
2018-12-26T10:25:20.604Z,20.10
2018-12-26T10:27:46.760Z,17.50
2018-12-26T10:30:12.940Z,18.02
2018-12-26T10:32:39.220Z,19.52
2018-12-26T10:35:05.321Z,20.37
2018-12-26T10:37:31.491Z,20.02
2018-12-26T10:39:57.644Z,18.90
2018-12-26T10:42:23.783Z,20.15
2018-12-26T10:44:49.893Z,19.50
2018-12-26T10:47:16.075Z,21.48
2018-12-26T10:49:42.222Z,17.30
2018-12-26T10:52:08.377Z,19.52
2018-12-26T10:54:34.505Z,18.83
2018-12-26T10:57:00.693Z,20.62
2018-12-26T10:59:26.853Z,26.25
2018-12-26T11:01:53.020Z,21.77
2018-12-26T11:04:19.148Z,24.00
2018-12-26T11:06:45.387Z,20.65
2018-12-26T11:09:11.567Z,21.12
2018-12-26T11:11:37.715Z,21.90
2018-12-26T11:14:03.853Z,20.15
2018-12-26T11:16:29.959Z,19.95
2018-12-26T11:18:56.157Z,23.62
2018-12-26T11:21:22.360Z,22.27
2018-12-26T11:23:48.499Z,20.55
2018-12-26T11:26:14.667Z,22.65
2018-12-26T11:28:40.840Z,20.90
2018-12-26T11:31:06.995Z,23.30
2018-12-26T11:33:33.168Z,28.25
2018-12-26T11:35:59.310Z,22.00
2018-12-26T11:38:25.448Z,23.20
2018-12-26T11:40:51.615Z,23.50
2018-12-26T11:43:17.795Z,21.20
2018-12-26T11:45:43.979Z,23.50
2018-12-26T11:48:10.121Z,21.95
2018-12-26T11:50:36.390Z,22.10
2018-12-26T11:53:02.574Z,23.25
2018-12-26T11:55:28.724Z,24.50
2018-12-26T11:57:54.969Z,21.45
2018-12-26T12:00:21.136Z,22.30
2018-12-26T12:02:47.316Z,21.23
2018-12-26T12:05:14.244Z,24.40
2018-12-26T12:07:40.392Z,22.92
2018-12-26T12:10:07.373Z,21.98
2018-12-26T12:12:33.536Z,27.00
2018-12-26T12:14:59.732Z,24.10
2018-12-26T12:17:25.870Z,24.20
2018-12-26T12:19:52.024Z,25.05
2018-12-26T12:22:18.270Z,24.02
2018-12-26T12:24:45.273Z,25.50
2018-12-26T12:27:11.430Z,24.67
2018-12-26T12:29:37.602Z,24.42
2018-12-26T12:32:03.793Z,23.85
2018-12-26T12:34:29.954Z,24.15
2018-12-26T12:36:56.151Z,21.52
2018-12-26T12:39:22.310Z,26.08
2018-12-26T12:41:48.467Z,23.27
2018-12-26T12:44:14.666Z,23.95
2018-12-26T12:46:40.876Z,21.77
2018-12-26T12:49:07.098Z,22.65
2018-12-26T12:51:34.024Z,22.60
2018-12-26T12:54:00.208Z,29.30
2018-12-26T12:56:26.364Z,25.27
2018-12-26T12:58:53.380Z,27.40
2018-12-26T13:01:19.548Z,24.50
2018-12-26T13:03:46.676Z,25.33
2018-12-26T13:06:12.055Z,26.02
2018-12-26T13:08:38.265Z,26.85
2018-12-26T13:11:04.444Z,27.60
2018-12-26T13:13:31.798Z,25.45
2018-12-26T13:15:57.685Z,24.20
2018-12-26T13:18:23.869Z,24.95
2018-12-26T13:20:50.033Z,27.20
2018-12-26T13:23:16.274Z,23.52
2018-12-26T13:25:42.709Z,24.48
2018-12-26T13:28:09.657Z,22.87
2018-12-26T13:30:35.842Z,24.17
2018-12-26T13:33:02.721Z,26.77
2018-12-26T13:35:28.915Z,24.70
2018-12-26T13:37:55.868Z,25.50
2018-12-26T13:40:22.724Z,24.95
2018-12-26T13:42:48.959Z,25.27
2018-12-26T13:45:15.201Z,26.65
2018-12-26T13:47:41.405Z,22.45
2018-12-26T13:50:07.588Z,26.33
2018-12-26T13:52:33.802Z,26.05
2018-12-26T13:54:59.998Z,24.80
2018-12-26T13:57:26.156Z,23.85
2018-12-26T13:59:52.412Z,28.45
2018-12-26T14:02:19.384Z,25.85
2018-12-26T14:04:45.615Z,26.37
2018-12-26T14:07:12.528Z,28.80
2018-12-26T14:09:38.718Z,25.42
2018-12-26T14:12:04.915Z,26.90
2018-12-26T14:14:31.783Z,23.40
2018-12-26T14:16:58.001Z,26.10
2018-12-26T14:19:25.416Z,23.80
2018-12-26T14:21:53.138Z,22.87
2018-12-26T14:24:20.405Z,27.17
2018-12-26T14:26:47.378Z,26.42
2018-12-26T14:29:14.398Z,25.92
2018-12-26T14:31:40.565Z,25.45
2018-12-26T14:34:07.503Z,25.50
2018-12-26T14:36:33.742Z,26.77
2018-12-26T14:39:00.727Z,24.80
2018-12-26T14:41:27.029Z,23.15
2018-12-26T14:43:53.222Z,25.25
2018-12-26T14:46:19.359Z,25.05
2018-12-26T14:48:45.543Z,24.23
2018-12-26T14:51:11.742Z,28.20
2018-12-26T14:53:37.919Z,27.33
2018-12-26T14:56:03.958Z,26.83
2018-12-26T14:58:29.978Z,23.17
2018-12-26T15:00:56.054Z,25.17
2018-12-26T15:03:22.058Z,25.98
2018-12-26T15:05:48.054Z,28.42
2018-12-26T15:08:14.082Z,25.10
2018-12-26T15:10:40.106Z,28.25
2018-12-26T15:13:06.186Z,25.90
2018-12-26T15:15:32.263Z,28.35
2018-12-26T15:17:58.279Z,28.12
2018-12-26T15:20:24.354Z,27.33
2018-12-26T15:22:50.413Z,26.60
2018-12-26T15:25:16.486Z,24.42
2018-12-26T15:27:42.533Z,26.95
2018-12-26T15:30:08.650Z,29.40
2018-12-26T15:32:34.678Z,27.48
2018-12-26T15:35:00.736Z,27.58
2018-12-26T15:37:27.140Z,26.05
2018-12-26T15:39:53.177Z,25.70
2018-12-26T15:42:19.407Z,28.20
2018-12-26T15:44:45.451Z,28.60
2018-12-26T15:47:11.532Z,29.25
2018-12-26T15:49:37.609Z,28.00
2018-12-26T15:52:03.683Z,26.45
2018-12-26T15:54:29.732Z,32.03
2018-12-26T15:56:55.756Z,27.90
2018-12-26T15:59:21.801Z,31.27
2018-12-26T16:01:47.853Z,28.75
2018-12-26T16:04:15.598Z,26.58
2018-12-26T16:06:41.593Z,26.90
2018-12-26T16:09:07.606Z,30.92
2018-12-26T16:11:33.645Z,29.65
2018-12-26T16:13:59.697Z,29.02
2018-12-26T16:16:25.693Z,25.50
2018-12-26T16:18:51.695Z,26.73
2018-12-26T16:21:17.738Z,29.98
2018-12-26T16:23:43.755Z,36.63
2018-12-26T16:26:09.799Z,34.13
2018-12-26T16:28:35.790Z,33.67
2018-12-26T16:31:02.274Z,36.33
2018-12-26T16:33:27.867Z,33.80
2018-12-26T16:35:53.885Z,37.83
2018-12-26T16:38:19.892Z,33.55
2018-12-26T16:40:45.906Z,27.95
2018-12-26T16:43:12.698Z,29.67
2018-12-26T16:45:38.693Z,30.42
2018-12-26T16:48:04.689Z,27.60
2018-12-26T16:50:30.700Z,25.60
2018-12-26T16:52:56.792Z,27.48
2018-12-26T16:55:23.540Z,29.08
2018-12-26T16:57:49.569Z,31.00
2018-12-26T17:00:15.661Z,29.27
2018-12-26T17:02:41.787Z,28.10
2018-12-26T17:05:08.914Z,27.55
2018-12-26T17:07:35.803Z,30.65
2018-12-26T17:10:01.904Z,31.15
2018-12-26T17:12:28.157Z,33.35
2018-12-26T17:14:54.175Z,34.08
2018-12-26T17:17:20.179Z,32.85
2018-12-26T17:19:46.207Z,31.67
2018-12-26T17:22:13.226Z,28.70
2018-12-26T17:24:39.273Z,28.80
2018-12-26T17:27:05.270Z,29.63
2018-12-26T17:29:31.290Z,32.22
2018-12-26T17:31:57.319Z,30.60
2018-12-26T17:34:24.089Z,31.25
2018-12-26T17:36:50.087Z,34.08
2018-12-26T17:39:16.112Z,30.75
2018-12-26T17:41:44.124Z,31.55
2018-12-26T17:44:10.117Z,33.33
2018-12-26T17:46:36.133Z,35.30
2018-12-26T17:49:02.917Z,32.40
2018-12-26T17:51:28.926Z,31.20
2018-12-26T17:53:56.746Z,35.08
2018-12-26T17:56:24.631Z,37.90
2018-12-26T17:58:55.185Z,37.95
2018-12-26T18:01:24.004Z,34.72
2018-12-26T18:03:50.003Z,31.40
2018-12-26T18:06:16.103Z,30.48
2018-12-26T18:08:42.125Z,33.38
2018-12-26T18:11:08.141Z,35.97
2018-12-26T18:13:34.142Z,31.47
2018-12-26T18:16:00.158Z,32.50
2018-12-26T18:18:26.181Z,30.50
2018-12-26T18:20:52.220Z,31.67
2018-12-26T18:23:18.222Z,29.87
2018-12-26T18:25:44.250Z,31.45
2018-12-26T18:28:10.315Z,27.83
2018-12-26T18:30:37.096Z,32.00
2018-12-26T18:33:03.077Z,32.70
2018-12-26T18:35:29.803Z,32.93
2018-12-26T18:37:55.788Z,31.85
2018-12-26T18:40:21.798Z,34.90
2018-12-26T18:42:47.782Z,31.65
2018-12-26T18:45:14.545Z,33.57
2018-12-26T18:47:40.621Z,34.55
2018-12-26T18:50:06.664Z,33.13
2018-12-26T18:52:32.709Z,31.33
2018-12-26T18:54:58.725Z,30.65
2018-12-26T18:57:24.760Z,36.88
2018-12-26T18:59:50.786Z,31.02
2018-12-26T19:02:16.936Z,32.97
2018-12-26T19:04:43.070Z,32.40
2018-12-26T19:07:09.151Z,33.78
2018-12-26T19:09:35.221Z,32.90
2018-12-26T19:12:01.234Z,31.80
2018-12-26T19:14:27.228Z,31.27
2018-12-26T19:16:53.253Z,32.85
2018-12-26T19:19:19.293Z,32.92
2018-12-26T19:21:45.357Z,31.35
2018-12-26T19:24:11.367Z,32.17
2018-12-26T19:26:37.362Z,31.80
2018-12-26T19:29:03.363Z,28.50
2018-12-26T19:31:29.397Z,28.20
2018-12-26T19:33:55.449Z,24.48
2018-12-26T19:36:21.473Z,29.25
2018-12-26T19:38:47.601Z,27.60
2018-12-26T19:41:13.615Z,27.98
2018-12-26T19:43:39.628Z,27.10
2018-12-26T19:46:05.656Z,24.08
2018-12-26T19:48:31.665Z,24.60
2018-12-26T19:50:57.705Z,27.33
2018-12-26T19:53:23.713Z,26.10
2018-12-26T19:55:49.769Z,25.00
2018-12-26T19:58:15.767Z,25.48
2018-12-26T20:00:41.835Z,25.40
2018-12-26T20:03:08.580Z,26.00
2018-12-26T20:05:35.429Z,28.87
2018-12-26T20:08:01.446Z,25.73
2018-12-26T20:10:27.464Z,26.40
2018-12-26T20:12:53.442Z,26.87
2018-12-26T20:15:19.488Z,25.43
2018-12-26T20:17:45.499Z,27.62
2018-12-26T20:20:11.507Z,26.95
2018-12-26T20:22:37.536Z,29.10
2018-12-26T20:25:03.520Z,26.92
2018-12-26T20:27:29.506Z,29.40
2018-12-26T20:29:55.744Z,28.45
2018-12-26T20:32:21.745Z,31.48
2018-12-26T20:34:47.869Z,30.08
2018-12-26T20:37:13.907Z,31.12
2018-12-26T20:39:40.706Z,30.00
2018-12-26T20:42:06.678Z,28.55
2018-12-26T20:44:32.709Z,31.70
2018-12-26T20:46:58.725Z,31.20
2018-12-26T20:49:25.465Z,31.65
2018-12-26T20:51:55.383Z,32.33
2018-12-26T20:54:21.686Z,31.58
2018-12-26T20:56:47.679Z,30.95
2018-12-26T20:59:13.704Z,30.07
2018-12-26T21:01:39.731Z,32.35
2018-12-26T21:04:05.761Z,31.58
2018-12-26T21:06:31.809Z,31.52
2018-12-26T21:08:57.945Z,35.03
2018-12-26T21:11:23.985Z,29.67
2018-12-26T21:13:50.026Z,32.65
2018-12-26T21:16:16.071Z,33.05
2018-12-26T21:18:42.075Z,31.17
2018-12-26T21:21:08.060Z,34.13
2018-12-26T21:23:34.116Z,33.10
2018-12-26T21:26:00.176Z,30.85
2018-12-26T21:28:26.288Z,31.83
2018-12-26T21:30:52.313Z,29.67
2018-12-26T21:33:18.388Z,28.20
2018-12-26T21:35:46.091Z,32.70
2018-12-26T21:38:12.123Z,31.00
2018-12-26T21:40:38.108Z,28.95
2018-12-26T21:43:04.214Z,30.33
2018-12-26T21:45:30.229Z,34.95
2018-12-26T21:47:56.948Z,31.92
2018-12-26T21:50:22.951Z,32.45
2018-12-26T21:52:48.961Z,31.90
2018-12-26T21:55:14.961Z,31.30
2018-12-26T21:57:40.969Z,32.15
2018-12-26T22:00:06.961Z,32.15
2018-12-26T22:02:32.947Z,27.90
2018-12-26T22:04:58.959Z,28.87
2018-12-26T22:07:25.009Z,29.75
2018-12-26T22:09:51.010Z,29.17
2018-12-26T22:12:17.005Z,28.80
2018-12-26T22:14:43.018Z,27.95
2018-12-26T22:17:09.101Z,27.55
2018-12-26T22:19:35.100Z,26.75
2018-12-26T22:22:01.085Z,25.60
2018-12-26T22:24:27.111Z,25.20
2018-12-26T22:26:53.126Z,24.75
2018-12-26T22:29:19.089Z,26.10
2018-12-26T22:31:45.057Z,25.70
2018-12-26T22:34:11.796Z,24.70
2018-12-26T22:36:37.794Z,26.27
2018-12-26T22:39:03.837Z,25.73
2018-12-26T22:41:29.842Z,24.23
2018-12-26T22:43:55.842Z,26.50
2018-12-26T22:46:21.885Z,23.45
2018-12-26T22:48:47.861Z,28.38
2018-12-26T22:51:13.851Z,29.03
2018-12-26T22:53:39.866Z,26.60
2018-12-26T22:56:05.853Z,26.00
2018-12-26T22:58:31.830Z,22.20
2018-12-26T23:00:58.617Z,24.83
2018-12-26T23:03:24.629Z,25.55
2018-12-26T23:05:50.625Z,25.77
2018-12-26T23:08:16.630Z,32.10
2018-12-26T23:10:42.632Z,27.98
2018-12-26T23:13:08.647Z,24.98
2018-12-26T23:15:34.669Z,27.85
2018-12-26T23:18:00.687Z,26.00
2018-12-26T23:20:26.685Z,25.77
2018-12-26T23:22:52.950Z,26.27
2018-12-26T23:25:19.008Z,26.62
2018-12-26T23:27:45.001Z,28.58
2018-12-26T23:30:11.009Z,26.57
2018-12-26T23:32:37.033Z,27.85
2018-12-26T23:35:03.111Z,28.45
2018-12-26T23:37:29.082Z,26.70
2018-12-26T23:39:55.105Z,25.43
2018-12-26T23:42:21.135Z,25.33
2018-12-26T23:44:47.914Z,25.80
2018-12-26T23:47:14.658Z,25.12
2018-12-26T23:49:40.688Z,26.20
2018-12-26T23:52:06.693Z,27.40
2018-12-26T23:54:33.452Z,25.45
2018-12-26T23:56:59.473Z,24.20
2018-12-26T23:59:25.471Z,25.52
